Time;durP1;ratioP1;P1;durP2;ratioP2;P2;SDS_P1;SDS_P2;PMS_P1;PMS_P2;Temp;Humidity;BMP_temperature;BMP_pressure;BME280_temperature;BME280_humidity;BME280_pressure;Samples;Min_cycle;Max_cycle;Signal;HPM_P1;HPM_P2
2024/03/30 00:01:39;;;;;;;3.80;1.20;;;20.20;99.90;;;;;;5035729;28;20040;-53
2024/03/30 00:04:05;;;;;;;5.32;1.15;;;20.20;99.90;;;;;;5053272;28;20033;-54
2024/03/30 00:06:30;;;;;;;3.63;1.13;;;20.30;99.90;;;;;;5035007;28;20719;-56
2024/03/30 00:08:56;;;;;;;1.40;1.00;;;20.20;99.90;;;;;;5053390;28;20036;-55
2024/03/30 00:11:22;;;;;;;6.13;1.30;;;20.20;99.90;;;;;;5053333;28;20381;-54
2024/03/30 00:13:48;;;;;;;2.38;1.20;;;20.20;99.90;;;;;;5052716;28;20037;-55
2024/03/30 00:16:14;;;;;;;2.40;1.38;;;20.20;99.90;;;;;;5018961;28;20021;-54
2024/03/30 00:18:40;;;;;;;2.35;1.15;;;20.20;99.90;;;;;;5052651;28;20432;-56
2024/03/30 00:21:06;;;;;;;3.38;1.30;;;20.20;99.90;;;;;;5035422;28;20053;-56
2024/03/30 00:23:32;;;;;;;3.45;1.30;;;20.20;99.90;;;;;;5052546;28;20106;-57
2024/03/30 00:25:59;;;;;;;3.42;1.33;;;20.20;99.90;;;;;;5053031;28;20033;-56
2024/03/30 00:28:25;;;;;;;4.47;1.20;;;20.20;99.90;;;;;;5034965;28;20017;-56
2024/03/30 00:30:52;;;;;;;2.60;1.20;;;20.20;99.90;;;;;;5052187;28;20028;-54
2024/03/30 00:33:18;;;;;;;4.73;1.40;;;20.20;99.90;;;;;;5039856;28;20021;-54
2024/03/30 00:35:47;;;;;;;1.63;1.10;;;20.20;99.90;;;;;;5035074;28;20070;-55
2024/03/30 00:38:14;;;;;;;3.78;1.33;;;20.20;99.90;;;;;;5035196;28;20064;-55
2024/03/30 00:40:40;;;;;;;11.05;1.58;;;20.20;99.90;;;;;;5052546;28;20483;-54
2024/03/30 00:43:07;;;;;;;2.25;1.30;;;20.20;99.90;;;;;;5052986;28;20120;-54
2024/03/30 00:45:37;;;;;;;2.55;1.17;;;20.20;99.90;;;;;;5052038;28;20029;-54
2024/03/30 00:48:04;;;;;;;2.97;1.48;;;20.20;99.90;;;;;;5053067;28;20025;-54
2024/03/30 00:50:29;;;;;;;2.03;0.90;;;20.20;99.90;;;;;;5052593;28;20029;-54
2024/03/30 00:52:55;;;;;;;2.25;1.27;;;20.20;99.90;;;;;;5052629;28;20033;-54
2024/03/30 00:55:21;;;;;;;2.05;0.90;;;20.20;99.90;;;;;;5052491;28;20029;-55
2024/03/30 00:57:47;;;;;;;3.00;1.40;;;20.30;99.90;;;;;;5052991;28;20465;-56
2024/03/30 01:00:16;;;;;;;2.70;1.60;;;20.30;99.90;;;;;;5065323;23;20358;-44
2024/03/30 01:02:43;;;;;;;4.63;1.50;;;20.20;99.90;;;;;;5031574;28;20132;-42
2024/03/30 01:05:09;;;;;;;3.65;1.00;;;20.30;99.90;;;;;;5032202;28;20037;-41
2024/03/30 01:07:35;;;;;;;3.03;1.35;;;20.30;99.90;;;;;;5044933;28;20029;-44
2024/03/30 01:10:06;;;;;;;1.85;1.10;;;20.30;99.90;;;;;;5028767;28;20072;-42
2024/03/30 01:12:33;;;;;;;2.55;1.30;;;20.30;99.90;;;;;;5045748;28;20035;-42
2024/03/30 01:14:59;;;;;;;1.75;1.25;;;20.30;99.90;;;;;;5032442;28;20053;-41
2024/03/30 01:17:25;;;;;;;2.83;1.42;;;20.30;99.90;;;;;;5032430;28;20030;-44
2024/03/30 01:19:52;;;;;;;1.80;1.20;;;20.30;99.90;;;;;;5032397;28;20017;-42
2024/03/30 01:22:18;;;;;;;3.38;1.20;;;20.30;99.90;;;;;;5016460;28;20033;-44
2024/03/30 01:24:44;;;;;;;2.15;1.33;;;20.30;99.90;;;;;;5032376;28;20045;-43
2024/03/30 01:27:21;;;;;;;2.70;1.35;;;20.30;99.90;;;;;;5035148;28;20029;-43
2024/03/30 01:29:47;;;;;;;5.97;1.67;;;20.30;99.90;;;;;;5023072;28;20080;-43
2024/03/30 01:32:14;;;;;;;2.75;1.60;;;20.30;99.90;;;;;;5031014;28;20257;-43
2024/03/30 01:34:40;;;;;;;3.22;1.63;;;20.30;99.90;;;;;;5044156;28;20039;-43
2024/03/30 01:37:07;;;;;;;3.85;1.63;;;20.30;99.90;;;;;;5035667;28;20029;-44
2024/03/30 01:39:33;;;;;;;2.80;1.90;;;20.30;99.90;;;;;;5046503;28;20025;-44
2024/03/30 01:41:59;;;;;;;2.75;1.35;;;20.30;99.90;;;;;;5038491;28;20036;-43
2024/03/30 01:44:25;;;;;;;3.13;1.75;;;20.30;99.90;;;;;;5023909;28;20086;-42
2024/03/30 01:46:52;;;;;;;2.70;1.35;;;20.30;99.90;;;;;;5056655;28;20408;-42
2024/03/30 01:49:20;;;;;;;3.85;1.25;;;20.30;99.90;;;;;;5042704;28;20017;-43
2024/03/30 01:51:49;;;;;;;1.77;1.20;;;20.30;99.90;;;;;;5044441;28;20061;-42
2024/03/30 01:54:16;;;;;;;1.70;1.20;;;20.30;99.90;;;;;;5053998;28;20017;-42
2024/03/30 01:56:43;;;;;;;3.72;1.60;;;20.30;99.90;;;;;;5044188;28;20013;-42
2024/03/30 01:59:09;;;;;;;3.08;1.40;;;20.30;99.90;;;;;;5054050;28;20080;-42
2024/03/30 02:01:42;;;;;;;4.25;1.60;;;20.30;99.90;;;;;;5056213;23;20054;-55
2024/03/30 02:04:10;;;;;;;4.78;1.70;;;20.20;99.90;;;;;;5048830;28;20497;-55
2024/03/30 02:06:37;;;;;;;3.63;1.40;;;20.30;99.90;;;;;;5048528;28;20055;-54
2024/03/30 02:09:03;;;;;;;3.13;1.48;;;20.20;99.90;;;;;;5035736;28;20057;-55
2024/03/30 02:11:30;;;;;;;3.50;1.88;;;20.20;99.90;;;;;;5035582;28;20093;-55
2024/03/30 02:13:56;;;;;;;1.90;1.47;;;20.20;99.90;;;;;;5041669;28;20024;-51
2024/03/30 02:16:24;;;;;;;2.97;2.15;;;20.20;99.90;;;;;;5055264;28;20260;-51
2024/03/30 02:18:51;;;;;;;5.75;1.90;;;20.20;99.90;;;;;;5022732;28;20018;-51
2024/03/30 02:21:16;;;;;;;3.50;1.73;;;20.10;99.90;;;;;;5034726;28;20029;-53
2024/03/30 02:23:42;;;;;;;4.93;2.08;;;20.10;99.90;;;;;;5041958;28;20036;-54
2024/03/30 02:26:08;;;;;;;3.38;1.80;;;20.10;99.90;;;;;;5041423;28;20029;-54
2024/03/30 02:28:34;;;;;;;5.28;2.08;;;20.10;99.90;;;;;;5055103;28;20017;-52
2024/03/30 02:31:00;;;;;;;3.80;2.10;;;20.10;99.90;;;;;;5028368;28;20087;-52
2024/03/30 02:33:25;;;;;;;4.38;2.65;;;20.00;99.90;;;;;;5042220;28;20104;-52
2024/03/30 02:35:51;;;;;;;5.13;2.28;;;20.00;99.90;;;;;;5054457;28;20025;-54
2024/03/30 02:38:17;;;;;;;5.28;2.45;;;20.00;99.90;;;;;;5053624;28;20052;-52
2024/03/30 02:40:53;;;;;;;4.00;2.20;;;20.00;99.90;;;;;;5017201;28;20057;-52
2024/03/30 02:43:19;;;;;;;3.72;1.85;;;20.00;99.90;;;;;;5032971;28;20021;-53
2024/03/30 02:45:45;;;;;;;5.07;1.95;;;20.00;99.90;;;;;;5010773;28;20033;-52
2024/03/30 02:48:11;;;;;;;4.20;2.25;;;19.90;99.90;;;;;;5034817;28;20100;-53
2024/03/30 02:50:36;;;;;;;4.78;2.30;;;19.90;99.90;;;;;;5033381;28;20033;-53
2024/03/30 02:53:02;;;;;;;3.13;1.90;;;19.90;99.90;;;;;;5035095;28;20030;-54
2024/03/30 02:55:28;;;;;;;4.80;2.47;;;19.90;99.90;;;;;;5034236;28;20496;-54
2024/03/30 02:57:54;;;;;;;5.40;2.30;;;19.90;99.90;;;;;;5033797;28;20028;-54
2024/03/30 03:00:20;;;;;;;8.77;2.13;;;19.90;99.90;;;;;;5047225;23;20057;-41
2024/03/30 03:02:46;;;;;;;5.28;2.42;;;19.90;99.90;;;;;;5051971;28;20048;-41
2024/03/30 03:05:11;;;;;;;4.07;1.55;;;19.90;99.90;;;;;;5035963;28;20080;-42
2024/03/30 03:07:37;;;;;;;5.30;2.25;;;19.80;99.90;;;;;;5052969;28;20025;-42
2024/03/30 03:10:04;;;;;;;5.30;2.40;;;19.80;99.90;;;;;;5036910;28;20477;-42
2024/03/30 03:12:30;;;;;;;3.17;2.03;;;19.80;99.90;;;;;;5054690;28;20017;-43
2024/03/30 03:14:57;;;;;;;6.05;2.20;;;19.80;99.90;;;;;;5037018;28;20477;-42
2024/03/30 03:17:22;;;;;;;4.63;2.10;;;19.80;99.90;;;;;;5054169;28;20168;-42
2024/03/30 03:19:48;;;;;;;7.65;2.17;;;19.80;99.90;;;;;;5036545;28;20028;-42
2024/03/30 03:22:14;;;;;;;3.95;1.73;;;19.80;99.90;;;;;;5054604;28;20067;-42
2024/03/30 03:24:40;;;;;;;3.30;1.70;;;19.70;99.90;;;;;;5054363;28;20059;-41
2024/03/30 03:27:05;;;;;;;2.30;1.35;;;19.70;99.90;;;;;;5054349;28;20029;-42
2024/03/30 03:29:32;;;;;;;5.70;2.08;;;19.70;99.90;;;;;;5054657;28;20492;-42
2024/03/30 03:31:58;;;;;;;18.25;2.83;;;19.70;99.90;;;;;;5054584;28;20025;-41
2024/03/30 03:34:24;;;;;;;4.60;2.20;;;19.70;99.90;;;;;;5054250;28;20154;-42
2024/03/30 03:36:50;;;;;;;5.95;2.13;;;19.70;99.90;;;;;;5054075;28;20021;-41
2024/03/30 03:39:17;;;;;;;4.80;1.73;;;19.70;99.90;;;;;;5054234;28;20064;-41
2024/03/30 03:41:43;;;;;;;5.18;1.80;;;19.70;99.90;;;;;;5054375;28;20056;-42
2024/03/30 03:44:08;;;;;;;4.78;2.03;;;19.60;99.90;;;;;;5054117;28;20445;-42
2024/03/30 03:46:34;;;;;;;5.97;1.77;;;19.60;99.90;;;;;;5054051;28;20432;-42
2024/03/30 03:49:00;;;;;;;4.85;2.20;;;19.60;99.90;;;;;;5053870;28;20031;-42
2024/03/30 03:51:26;;;;;;;5.13;1.67;;;19.60;99.90;;;;;;5054133;28;20028;-42
2024/03/30 03:53:51;;;;;;;5.00;1.73;;;19.60;99.90;;;;;;5053925;28;20100;-41
2024/03/30 03:56:17;;;;;;;4.47;1.92;;;19.60;99.90;;;;;;5053859;28;20377;-42
2024/03/30 03:58:43;;;;;;;5.05;1.90;;;19.60;99.90;;;;;;5053798;28;20112;-42
2024/03/30 04:01:11;;;;;;;5.35;1.95;;;19.60;99.90;;;;;;5064527;23;20083;-55
2024/03/30 04:03:36;;;;;;;3.88;1.38;;;19.50;99.90;;;;;;5053691;28;20048;-56
2024/03/30 04:06:09;;;;;;;6.40;2.00;;;19.50;99.90;;;;;;5053482;28;20064;-57
2024/03/30 04:08:35;;;;;;;6.10;2.08;;;19.50;99.90;;;;;;5053551;28;20017;-56
2024/03/30 04:11:02;;;;;;;6.47;2.00;;;19.50;99.90;;;;;;5053607;28;20469;-56
2024/03/30 04:13:27;;;;;;;5.93;1.77;;;19.50;99.90;;;;;;5035587;28;20094;-54
2024/03/30 04:15:53;;;;;;;4.75;1.92;;;19.50;99.90;;;;;;5053612;28;20029;-55
2024/03/30 04:18:19;;;;;;;5.50;1.90;;;19.50;99.90;;;;;;5053421;28;20025;-56
2024/03/30 04:20:56;;;;;;;4.70;1.70;;;19.50;99.90;;;;;;5035421;28;20036;-55
2024/03/30 04:23:22;;;;;;;4.47;2.08;;;19.50;99.90;;;;;;5053394;28;20021;-54
2024/03/30 04:25:48;;;;;;;6.38;1.85;;;19.50;99.90;;;;;;5053521;28;20041;-55
2024/03/30 04:28:13;;;;;;;5.00;1.90;;;19.50;99.90;;;;;;5035400;28;20127;-56
2024/03/30 04:30:40;;;;;;;3.40;1.63;;;19.40;99.90;;;;;;5052997;28;20150;-55
2024/03/30 04:33:06;;;;;;;7.82;2.30;;;19.40;99.90;;;;;;5035633;28;20021;-55
2024/03/30 04:35:31;;;;;;;5.32;2.55;;;19.40;99.90;;;;;;5053204;28;20083;-56
2024/03/30 04:37:57;;;;;;;3.72;1.70;;;19.40;99.90;;;;;;5053146;28;20043;-56
2024/03/30 04:40:26;;;;;;;5.50;1.80;;;19.40;99.90;;;;;;5053218;28;20025;-56
2024/03/30 04:42:52;;;;;;;4.55;1.80;;;19.40;99.90;;;;;;5052899;28;20141;-56
2024/03/30 04:45:18;;;;;;;3.53;1.95;;;19.40;99.90;;;;;;5052936;28;20114;-57
2024/03/30 04:47:43;;;;;;;3.40;1.83;;;19.40;99.90;;;;;;5035050;28;20021;-56
2024/03/30 04:50:09;;;;;;;5.03;2.10;;;19.40;99.90;;;;;;5035012;28;20087;-56
2024/03/30 04:52:35;;;;;;;5.03;2.05;;;19.40;99.90;;;;;;5053062;28;20028;-56
2024/03/30 04:55:01;;;;;;;5.18;2.05;;;19.40;99.90;;;;;;5053223;28;20466;-55
2024/03/30 04:57:26;;;;;;;4.28;2.20;;;19.40;99.90;;;;;;5053162;28;20021;-56
2024/03/30 04:59:52;;;;;;;6.20;1.95;;;19.40;99.90;;;;;;5053028;28;20032;-56
2024/03/30 05:02:18;;;;;;;5.85;2.30;;;19.40;99.90;;;;;;5052386;28;20128;-56
2024/03/30 05:04:44;;;;;;;3.78;1.75;;;19.40;99.90;;;;;;5034954;28;20037;-55
2024/03/30 05:07:09;;;;;;;3.95;2.15;;;19.40;99.90;;;;;;5053266;28;20473;-56
2024/03/30 05:09:35;;;;;;;6.50;2.33;;;19.40;99.90;;;;;;5052931;28;20032;-55
2024/03/30 05:12:01;;;;;;;3.63;2.03;;;19.40;99.90;;;;;;5052726;28;20021;-56
2024/03/30 05:14:26;;;;;;;6.80;2.47;;;19.40;99.90;;;;;;5054917;28;20083;-56
2024/03/30 05:16:52;;;;;;;5.25;1.92;;;19.40;99.90;;;;;;5031553;28;20075;-55
2024/03/30 05:22:02;;;;;;;4.18;1.95;;;19.40;99.90;;;;;;5056568;28;20071;-56
2024/03/30 05:24:29;;;;;;;5.22;2.20;;;19.40;99.90;;;;;;5056263;28;20037;-56
2024/03/30 05:26:54;;;;;;;6.55;2.30;;;19.40;99.90;;;;;;5055065;28;20417;-57
2024/03/30 05:29:20;;;;;;;4.13;2.10;;;19.40;99.90;;;;;;5055292;28;20025;-57
2024/03/30 05:31:46;;;;;;;6.47;2.70;;;19.40;99.90;;;;;;5055109;28;20473;-56
2024/03/30 05:34:12;;;;;;;5.20;2.28;;;19.40;99.90;;;;;;5055605;28;20021;-56
2024/03/30 05:36:38;;;;;;;5.78;2.25;;;19.40;99.90;;;;;;5038447;28;20112;-56
2024/03/30 05:39:03;;;;;;;5.43;2.47;;;19.40;99.90;;;;;;5056417;28;20029;-56
2024/03/30 05:41:29;;;;;;;5.63;2.60;;;19.40;99.90;;;;;;5055380;28;20032;-56
2024/03/30 05:43:55;;;;;;;4.68;1.95;;;19.40;99.90;;;;;;5038410;28;20037;-56
2024/03/30 05:46:24;;;;;;;3.65;1.85;;;19.40;99.90;;;;;;5056424;28;20096;-56
2024/03/30 05:48:50;;;;;;;4.60;2.00;;;19.40;99.90;;;;;;5056157;28;20032;-56
2024/03/30 05:51:16;;;;;;;4.25;2.10;;;19.30;99.90;;;;;;5056259;28;20381;-57
2024/03/30 05:53:46;;;;;;;4.32;2.22;;;19.40;99.90;;;;;;5056048;28;20029;-56
2024/03/30 05:56:12;;;;;;;6.68;2.35;;;19.30;99.90;;;;;;5056078;28;20032;-56
2024/03/30 05:58:38;;;;;;;6.28;2.03;;;19.40;99.90;;;;;;5038256;28;20033;-56
2024/03/30 06:01:04;;;;;;;5.78;2.75;;;19.30;99.90;;;;;;5054101;28;20111;-55
2024/03/30 06:03:30;;;;;;;3.97;2.25;;;19.30;99.90;;;;;;5055031;28;20034;-55
2024/03/30 06:05:56;;;;;;;4.82;2.15;;;19.30;99.90;;;;;;5054982;28;20499;-56
2024/03/30 06:08:21;;;;;;;3.88;2.38;;;19.30;99.90;;;;;;5054176;28;20146;-55
2024/03/30 06:10:47;;;;;;;5.20;2.20;;;19.30;99.90;;;;;;5055887;28;20504;-55
2024/03/30 06:13:13;;;;;;;4.47;2.25;;;19.30;99.90;;;;;;5055869;28;20052;-55
2024/03/30 06:15:39;;;;;;;5.85;2.33;;;19.30;99.90;;;;;;5037801;28;20025;-55
2024/03/30 06:18:04;;;;;;;3.83;2.20;;;19.30;99.90;;;;;;5055661;28;20029;-55
2024/03/30 06:20:30;;;;;;;4.15;2.10;;;19.30;99.90;;;;;;5055784;28;20021;-55
2024/03/30 06:22:56;;;;;;;6.07;2.53;;;19.30;99.90;;;;;;5055750;28;20035;-55
2024/03/30 06:25:21;;;;;;;4.13;2.20;;;19.30;99.90;;;;;;5055039;28;20044;-55
2024/03/30 06:27:47;;;;;;;4.80;2.85;;;19.30;99.90;;;;;;5055410;28;20032;-56
2024/03/30 06:30:13;;;;;;;5.40;2.10;;;19.30;99.90;;;;;;5055473;28;20465;-56
2024/03/30 06:32:39;;;;;;;3.65;1.92;;;19.30;99.90;;;;;;5055526;28;20426;-56
2024/03/30 06:35:05;;;;;;;4.88;2.90;;;19.30;99.90;;;;;;5037441;28;20021;-56
2024/03/30 06:37:31;;;;;;;5.13;2.03;;;19.20;99.90;;;;;;5037466;28;20043;-56
2024/03/30 06:45:25;;;;;;;4.20;2.50;;;19.20;99.90;;;;;;5055268;28;20098;-56
2024/03/30 06:47:54;;;;;;;5.13;2.65;;;19.20;99.90;;;;;;5055144;28;20045;-55
2024/03/30 06:50:19;;;;;;;6.68;2.85;;;19.20;99.90;;;;;;5054872;28;20033;-57
2024/03/30 06:52:45;;;;;;;5.32;2.00;;;19.20;99.90;;;;;;5037061;28;20115;-56
2024/03/30 06:55:11;;;;;;;5.03;2.42;;;19.20;99.90;;;;;;5055194;28;20048;-55
2024/03/30 06:57:37;;;;;;;4.57;2.40;;;19.20;99.90;;;;;;5055157;28;20063;-55
2024/03/30 07:00:04;;;;;;;5.50;2.85;;;19.20;99.90;;;;;;5054753;28;20039;-56
2024/03/30 07:02:30;;;;;;;5.03;2.50;;;19.20;99.90;;;;;;5054789;28;20045;-55
2024/03/30 07:04:56;;;;;;;5.25;3.10;;;19.20;99.90;;;;;;5054886;28;20037;-55
2024/03/30 07:07:22;;;;;;;4.45;1.88;;;19.20;99.90;;;;;;5054814;28;20021;-56
2024/03/30 07:09:47;;;;;;;5.38;2.75;;;19.20;99.90;;;;;;5054697;28;20155;-56
2024/03/30 07:12:13;;;;;;;6.30;2.78;;;19.20;99.90;;;;;;5054799;28;20025;-56
2024/03/30 07:14:39;;;;;;;4.25;2.40;;;19.20;99.90;;;;;;5054772;28;20027;-56
2024/03/30 07:17:06;;;;;;;3.30;2.28;;;19.20;99.90;;;;;;5054953;28;20025;-56
2024/03/30 07:19:31;;;;;;;3.13;2.50;;;19.10;99.90;;;;;;5054455;28;20028;-56
2024/03/30 07:21:57;;;;;;;4.50;2.13;;;19.20;99.90;;;;;;5054811;28;20035;-56
2024/03/30 07:24:24;;;;;;;4.97;2.50;;;19.20;99.90;;;;;;5054387;28;20075;-56
2024/03/30 07:26:50;;;;;;;7.13;2.58;;;19.20;99.90;;;;;;5054432;28;20017;-56
2024/03/30 07:29:16;;;;;;;6.68;2.60;;;19.20;99.90;;;;;;5054536;28;20037;-55
2024/03/30 07:31:42;;;;;;;6.30;2.50;;;19.20;99.90;;;;;;5036460;28;20119;-56
2024/03/30 07:34:08;;;;;;;4.63;2.30;;;19.20;99.90;;;;;;5054095;28;20028;-55
2024/03/30 07:36:35;;;;;;;3.08;2.08;;;19.20;99.90;;;;;;5053491;28;20435;-56
2024/03/30 07:39:01;;;;;;;3.10;1.98;;;19.20;99.90;;;;;;5036429;28;20078;-54
2024/03/30 07:41:26;;;;;;;4.47;2.40;;;19.20;99.90;;;;;;5054217;28;20112;-53
2024/03/30 07:43:52;;;;;;;3.33;2.00;;;19.20;99.90;;;;;;5053938;28;20044;-53
2024/03/30 07:46:18;;;;;;;4.40;2.25;;;19.20;99.90;;;;;;5036381;28;20435;-53
2024/03/30 07:48:44;;;;;;;3.67;2.20;;;19.20;99.90;;;;;;5053962;28;20021;-53
2024/03/30 07:51:09;;;;;;;4.93;2.22;;;19.20;99.90;;;;;;5054144;28;20159;-54
2024/03/30 07:53:35;;;;;;;4.70;2.17;;;19.20;99.90;;;;;;5054088;28;20025;-53
2024/03/30 07:56:01;;;;;;;7.25;2.88;;;19.20;99.90;;;;;;5054274;28;20423;-55
2024/03/30 07:58:27;;;;;;;4.68;2.25;;;19.20;99.90;;;;;;5035968;28;20021;-54
2024/03/30 08:00:52;;;;;;;6.15;2.33;;;19.20;99.90;;;;;;5053691;28;20087;-53
2024/03/30 08:03:18;;;;;;;3.83;2.00;;;19.20;99.90;;;;;;5053756;28;20036;-53
2024/03/30 08:05:59;;;;;;;3.95;2.50;;;19.20;99.90;;;;;;5053825;28;20033;-54
2024/03/30 08:08:25;;;;;;;3.58;2.33;;;19.20;99.90;;;;;;5053770;28;20067;-53
2024/03/30 08:10:51;;;;;;;5.57;2.35;;;19.20;99.90;;;;;;5053721;28;20025;-54
2024/03/30 08:13:17;;;;;;;3.20;2.13;;;19.20;99.90;;;;;;5053883;28;20075;-54
2024/03/30 08:15:45;;;;;;;4.68;2.35;;;19.20;99.90;;;;;;5053662;28;20029;-54
2024/03/30 08:18:11;;;;;;;5.82;3.03;;;19.20;99.90;;;;;;5053601;28;20032;-57
2024/03/30 08:20:38;;;;;;;4.28;2.85;;;19.20;99.90;;;;;;5036199;28;20112;-55
2024/03/30 08:23:04;;;;;;;5.55;2.65;;;19.20;99.90;;;;;;5053436;28;20074;-55
2024/03/30 08:25:30;;;;;;;5.60;2.92;;;19.20;99.90;;;;;;5053367;28;20033;-55
2024/03/30 08:27:55;;;;;;;5.88;3.08;;;19.20;99.90;;;;;;5019101;28;20032;-56
2024/03/30 08:30:21;;;;;;;5.13;3.28;;;19.20;99.90;;;;;;5035304;28;20068;-55
2024/03/30 08:32:50;;;;;;;5.50;2.75;;;19.10;99.90;;;;;;5053355;28;20036;-56
2024/03/30 08:35:16;;;;;;;6.43;3.67;;;19.10;99.90;;;;;;5053150;28;20025;-56
2024/03/30 08:37:42;;;;;;;8.93;4.18;;;19.10;99.90;;;;;;5053387;28;20025;-56
2024/03/30 08:40:08;;;;;;;5.30;3.20;;;19.10;99.90;;;;;;5053305;28;20037;-55
2024/03/30 08:42:34;;;;;;;5.60;3.40;;;19.10;99.90;;;;;;5053071;28;20079;-56
2024/03/30 08:44:59;;;;;;;4.97;3.17;;;19.10;99.90;;;;;;5053211;28;20036;-56
2024/03/30 08:47:25;;;;;;;5.75;3.25;;;19.10;99.90;;;;;;5053143;28;20369;-56
2024/03/30 08:49:51;;;;;;;9.95;3.67;;;19.10;99.90;;;;;;5053057;28;20021;-56
2024/03/30 08:52:16;;;;;;;8.15;3.10;;;19.10;99.90;;;;;;5053166;28;20029;-56
2024/03/30 08:54:42;;;;;;;7.57;3.90;;;19.10;99.90;;;;;;5052880;28;20029;-57
2024/03/30 08:57:08;;;;;;;7.00;3.78;;;19.10;99.90;;;;;;5033427;28;20029;-56
2024/03/30 08:59:34;;;;;;;4.97;3.20;;;19.10;99.90;;;;;;5052410;28;20057;-56
2024/03/30 09:02:00;;;;;;;5.45;3.22;;;19.00;99.90;;;;;;5051000;28;20408;-57
2024/03/30 09:04:25;;;;;;;5.47;3.75;;;19.00;99.90;;;;;;5050640;28;20033;-56
2024/03/30 09:06:51;;;;;;;5.72;3.00;;;19.10;99.90;;;;;;5050700;28;20063;-56
2024/03/30 09:09:17;;;;;;;7.22;2.88;;;19.00;99.90;;;;;;5032826;28;20435;-57
2024/03/30 09:11:43;;;;;;;6.15;3.13;;;19.00;99.90;;;;;;5052486;28;20056;-56
2024/03/30 09:14:09;;;;;;;5.45;2.88;;;19.00;99.90;;;;;;5052743;28;20426;-56
2024/03/30 09:16:35;;;;;;;5.38;3.10;;;19.00;99.90;;;;;;5053027;28;20025;-57
2024/03/30 09:19:00;;;;;;;4.85;3.05;;;19.00;99.90;;;;;;5034821;28;20067;-56
2024/03/30 09:21:26;;;;;;;5.38;3.03;;;19.00;99.90;;;;;;5053150;28;20025;-57
2024/03/30 09:23:52;;;;;;;5.20;2.92;;;19.00;99.90;;;;;;5052590;28;20028;-57
2024/03/30 09:26:18;;;;;;;4.95;2.88;;;19.00;99.90;;;;;;5052704;28;20503;-56
2024/03/30 09:28:44;;;;;;;4.55;2.88;;;19.00;99.90;;;;;;5052850;28;20028;-56
2024/03/30 09:31:09;;;;;;;4.82;2.67;;;19.00;99.90;;;;;;5052580;28;20033;-56
2024/03/30 09:33:35;;;;;;;5.90;2.67;;;19.00;99.90;;;;;;5052885;28;20024;-56
2024/03/30 09:36:08;;;;;;;5.88;3.05;;;19.00;99.90;;;;;;5052541;28;20461;-55
2024/03/30 09:38:34;;;;;;;8.13;2.92;;;19.00;99.90;;;;;;5052590;28;20028;-54
2024/03/30 09:41:03;;;;;;;7.63;2.90;;;19.00;99.90;;;;;;5052650;28;20350;-53
2024/03/30 09:43:29;;;;;;;4.88;3.30;;;18.90;99.90;;;;;;5052451;28;20044;-53
2024/03/30 09:45:57;;;;;;;5.65;2.55;;;18.90;99.90;;;;;;5052861;28;20055;-53
2024/03/30 09:48:25;;;;;;;6.15;2.75;;;19.00;99.90;;;;;;5052656;28;20013;-54
2024/03/30 09:50:53;;;;;;;6.68;2.25;;;18.90;99.90;;;;;;5034943;28;20025;-53
2024/03/30 09:53:19;;;;;;;;;;;18.90;99.90;;;;;;5053089;28;20071;-52
2024/03/30 09:55:46;;;;;;;5.65;2.83;;;19.00;99.90;;;;;;5052563;28;19904;-52
2024/03/30 09:58:14;;;;;;;4.00;2.17;;;18.90;99.90;;;;;;5052570;28;20424;-53
2024/03/30 10:00:41;;;;;;;6.40;2.50;;;18.90;99.90;;;;;;5055533;28;20068;-52
2024/03/30 10:03:07;;;;;;;6.30;2.60;;;18.90;99.90;;;;;;5056128;28;20039;-54
2024/03/30 10:05:38;;;;;;;5.40;2.75;;;18.90;99.90;;;;;;5038172;28;20037;-53
2024/03/30 10:08:07;;;;;;;4.85;2.90;;;18.90;99.90;;;;;;5056063;28;20025;-53
2024/03/30 10:10:33;;;;;;;6.00;3.03;;;18.90;99.90;;;;;;5055965;28;20028;-53
2024/03/30 10:13:07;;;;;;;6.18;3.63;;;18.90;99.90;;;;;;5055920;28;20021;-53
2024/03/30 10:15:43;;;;;;;5.43;2.83;;;18.80;99.90;;;;;;5056039;28;20021;-54
2024/03/30 10:18:09;;;;;;;4.40;3.03;;;18.80;99.90;;;;;;5055765;28;20029;-53
2024/03/30 10:20:35;;;;;;;3.85;2.50;;;18.80;99.90;;;;;;5055866;28;20032;-53
2024/03/30 10:23:01;;;;;;;4.75;2.40;;;18.80;99.90;;;;;;5056081;28;20389;-54
2024/03/30 10:25:27;;;;;;;5.20;2.22;;;18.80;99.90;;;;;;5055817;28;20029;-54
2024/03/30 10:27:53;;;;;;;6.35;2.45;;;18.80;99.90;;;;;;5055653;28;20477;-54
2024/03/30 10:30:19;;;;;;;5.32;2.53;;;18.80;99.90;;;;;;5055701;28;20033;-54
2024/03/30 10:32:45;;;;;;;7.55;2.67;;;18.80;99.90;;;;;;5055665;28;20052;-53
2024/03/30 10:35:19;;;;;;;5.47;2.40;;;18.80;99.90;;;;;;5055658;28;20071;-55
2024/03/30 10:37:45;;;;;;;6.75;2.92;;;18.80;99.90;;;;;;5055458;28;20017;-54
2024/03/30 10:40:12;;;;;;;5.22;2.40;;;18.80;99.90;;;;;;5055364;28;20029;-54
2024/03/30 10:42:39;;;;;;;4.18;1.60;;;18.80;99.90;;;;;;5055400;28;20028;-55
2024/03/30 10:45:06;;;;;;;3.28;1.77;;;18.70;99.90;;;;;;5055396;28;20031;-54
2024/03/30 10:47:34;;;;;;;4.67;2.20;;;18.70;99.90;;;;;;5037750;28;20477;-53
2024/03/30 10:50:01;;;;;;;4.57;2.00;;;18.70;99.90;;;;;;5037585;28;20048;-54
2024/03/30 10:52:27;;;;;;;7.20;2.67;;;18.70;99.90;;;;;;5055099;28;20116;-54
2024/03/30 10:54:55;;;;;;;7.93;2.53;;;18.70;99.90;;;;;;5037155;28;20024;-53
2024/03/30 10:57:25;;;;;;;4.25;2.30;;;18.70;99.90;;;;;;5055238;28;20048;-53
2024/03/30 10:59:51;;;;;;;8.93;2.28;;;18.70;99.90;;;;;;5055067;28;20044;-53
2024/03/30 11:02:18;;;;;;;4.47;2.30;;;18.70;99.90;;;;;;5054804;28;20492;-53
2024/03/30 11:04:44;;;;;;;6.80;2.50;;;18.70;99.90;;;;;;5054989;28;20029;-54
2024/03/30 11:07:13;;;;;;;10.07;3.25;;;18.70;99.90;;;;;;5054886;28;20725;-54
2024/03/30 11:09:43;;;;;;;3.95;2.35;;;18.60;99.90;;;;;;5036942;28;20044;-54
2024/03/30 11:12:15;;;;;;;14.43;2.80;;;18.60;99.90;;;;;;5054078;28;20025;-54
2024/03/30 11:14:42;;;;;;;7.82;3.10;;;18.70;99.90;;;;;;5037204;28;20025;-53
2024/03/30 11:17:08;;;;;;;8.25;3.17;;;18.60;99.90;;;;;;5037045;28;20031;-54
2024/03/30 11:19:40;;;;;;;10.38;2.83;;;18.60;99.90;;;;;;5054561;28;20033;-53
2024/03/30 11:22:23;;;;;;;9.55;2.75;;;18.60;99.90;;;;;;5054696;28;20029;-53
2024/03/30 11:24:59;;;;;;;12.30;2.83;;;18.60;99.90;;;;;;5054570;28;20025;-53
2024/03/30 11:27:32;;;;;;;6.13;3.00;;;18.60;99.90;;;;;;5036667;28;20021;-51
2024/03/30 11:30:32;;;;;;;7.70;2.45;;;18.60;99.90;;;;;;5054910;28;20055;-53
2024/03/30 11:33:06;;;;;;;7.18;2.70;;;18.60;99.90;;;;;;5054388;28;20032;-53
2024/03/30 11:35:40;;;;;;;6.93;2.60;;;18.60;99.90;;;;;;5054520;28;20036;-52
2024/03/30 11:38:06;;;;;;;6.85;2.90;;;18.60;99.90;;;;;;5054374;28;20465;-53
2024/03/30 11:40:37;;;;;;;10.20;2.40;;;18.60;99.90;;;;;;5054403;28;20420;-53
2024/03/30 11:43:21;;;;;;;8.70;2.20;;;18.60;99.90;;;;;;5054304;28;20025;-53
2024/03/30 11:45:48;;;;;;;8.23;2.53;;;18.60;99.90;;;;;;5054050;28;20036;-53
2024/03/30 11:48:16;;;;;;;5.13;2.50;;;18.60;99.90;;;;;;5036469;28;20017;-52
2024/03/30 11:50:42;;;;;;;8.30;2.33;;;18.60;99.90;;;;;;5054064;28;20032;-52
2024/03/30 11:53:15;;;;;;;7.25;2.22;;;18.60;99.90;;;;;;5054002;28;20068;-52
2024/03/30 11:55:45;;;;;;;9.00;2.85;;;18.60;99.90;;;;;;5054061;28;20119;-52
2024/03/30 11:58:21;;;;;;;6.50;2.00;;;18.60;99.90;;;;;;5054017;28;20060;-52
2024/03/30 12:00:49;;;;;;;7.55;2.58;;;18.60;99.90;;;;;;5035674;28;20031;-52
2024/03/30 12:03:15;;;;;;;8.65;2.78;;;18.60;99.90;;;;;;5053962;28;20033;-55
2024/03/30 12:05:44;;;;;;;6.50;1.83;;;18.50;99.90;;;;;;5053627;28;20539;-54
2024/03/30 12:08:10;;;;;;;7.50;1.98;;;18.50;99.90;;;;;;5053778;28;20496;-53
2024/03/30 12:11:06;;;;;;;10.35;2.20;;;18.50;99.90;;;;;;5053656;28;20354;-53
2024/03/30 12:13:38;;;;;;;8.75;2.85;;;18.50;99.90;;;;;;5037107;28;20033;-54
2024/03/30 12:16:05;;;;;;;6.97;2.85;;;18.50;99.90;;;;;;5053668;28;20039;-55
2024/03/30 12:18:31;;;;;;;4.70;2.03;;;18.50;99.90;;;;;;5053634;28;20495;-55
2024/03/30 12:20:57;;;;;;;9.93;2.35;;;18.50;99.90;;;;;;5053595;28;20258;-55
2024/03/30 12:23:24;;;;;;;7.22;2.45;;;18.50;99.90;;;;;;5051051;28;20103;-55
2024/03/30 12:25:51;;;;;;;9.88;2.15;;;18.50;99.90;;;;;;5053220;28;20029;-55
2024/03/30 12:28:18;;;;;;;12.07;2.55;;;18.50;99.90;;;;;;5053111;28;20033;-56
2024/03/30 12:30:49;;;;;;;5.97;2.20;;;18.50;99.90;;;;;;5052210;28;20083;-56
2024/03/30 12:33:15;;;;;;;11.88;2.42;;;18.50;99.90;;;;;;5052023;28;20400;-55
2024/03/30 12:35:42;;;;;;;9.20;3.80;;;18.50;99.90;;;;;;5052472;28;20021;-55
2024/03/30 12:38:26;;;;;;;10.05;2.08;;;18.50;99.90;;;;;;5053108;28;20024;-57
2024/03/30 12:40:52;;;;;;;10.43;2.95;;;18.50;99.90;;;;;;5053344;28;20036;-57
2024/03/30 12:43:18;;;;;;;7.82;2.55;;;18.50;99.90;;;;;;5053193;28;20029;-56
2024/03/30 12:45:44;;;;;;;10.60;2.25;;;18.50;99.90;;;;;;5052964;28;20167;-56
2024/03/30 12:48:11;;;;;;;5.07;2.22;;;18.50;99.90;;;;;;5035226;28;20477;-57
2024/03/30 12:50:37;;;;;;;5.05;2.25;;;18.50;99.90;;;;;;5053044;28;20036;-56
2024/03/30 12:53:03;;;;;;;6.03;2.30;;;18.50;99.90;;;;;;5053203;28;20381;-56